Time;durP1;ratioP1;P1;durP2;ratioP2;P2;SDS_P1;SDS_P2;PMS_P1;PMS_P2;Temp;Humidity;BMP_temperature;BMP_pressure;BME280_temperature;BME280_humidity;BME280_pressure;Samples;Min_cycle;Max_cycle;Signal;HPM_P1;HPM_P2
2023/02/22 00:00:18;;;;;;;30.25;18.45;;;8.70;99.90;;;;;;5041195;28;20507;-92
2023/02/22 00:02:50;;;;;;;28.10;18.55;;;8.70;99.90;;;;;;5058177;28;20021;-91
2023/02/22 00:05:21;;;;;;;29.02;18.63;;;8.60;99.90;;;;;;5042029;28;20017;-90
2023/02/22 00:07:48;;;;;;;27.48;16.73;;;8.70;99.90;;;;;;5057970;28;20032;-90
2023/02/22 00:10:19;;;;;;;27.98;17.35;;;8.70;99.90;;;;;;5057833;28;20027;-89
2023/02/22 00:12:48;;;;;;;26.23;16.23;;;8.70;99.90;;;;;;5057586;28;20111;-91
2023/02/22 00:15:15;;;;;;;26.95;17.05;;;8.60;99.90;;;;;;5041608;28;20107;-91
2023/02/22 00:17:41;;;;;;;28.98;17.88;;;8.60;99.90;;;;;;5075212;28;20058;-91
2023/02/22 00:20:14;;;;;;;29.73;18.02;;;8.60;99.90;;;;;;5074349;28;20037;-91
2023/02/22 00:22:48;;;;;;;28.50;18.27;;;8.60;99.90;;;;;;5057794;28;20170;-91
2023/02/22 00:25:16;;;;;;;31.17;18.05;;;8.60;99.90;;;;;;5058245;28;20054;-91
2023/02/22 00:27:42;;;;;;;33.47;20.10;;;8.50;99.90;;;;;;5058458;28;20039;-91
2023/02/22 00:30:12;;;;;;;30.13;18.38;;;8.60;99.90;;;;;;5041098;28;20029;-91
2023/02/22 00:32:38;;;;;;;30.83;19.50;;;8.60;99.90;;;;;;5057966;28;20029;-90
2023/02/22 00:35:07;;;;;;;31.52;19.45;;;8.60;99.90;;;;;;5041014;28;20055;-92
2023/02/22 00:37:34;;;;;;;34.72;19.80;;;8.50;99.90;;;;;;5041198;28;20080;-91
2023/02/22 00:40:00;;;;;;;34.85;20.92;;;8.60;99.90;;;;;;5041516;28;20502;-92
2023/02/22 00:42:26;;;;;;;33.25;19.48;;;8.60;99.90;;;;;;5040864;28;20025;-92
2023/02/22 00:44:52;;;;;;;37.25;21.73;;;8.50;99.90;;;;;;5041346;28;20353;-91
2023/02/22 00:47:17;;;;;;;37.75;22.42;;;8.50;99.90;;;;;;5040487;28;20380;-92
2023/02/22 00:49:43;;;;;;;35.35;21.45;;;8.50;99.90;;;;;;5057781;28;20029;-91
2023/02/22 00:52:09;;;;;;;37.47;22.42;;;8.50;99.90;;;;;;5041064;28;20020;-91
2023/02/22 00:54:35;;;;;;;36.72;22.42;;;8.50;99.90;;;;;;5040548;28;20032;-91
2023/02/22 00:57:01;;;;;;;37.55;22.40;;;8.40;99.90;;;;;;5057526;28;20036;-91
2023/02/22 00:59:27;;;;;;;37.70;21.92;;;8.40;99.90;;;;;;5073920;28;20031;-91
2023/02/22 01:01:52;;;;;;;40.90;23.13;;;8.40;99.90;;;;;;5057522;28;20020;-92
2023/02/22 01:04:18;;;;;;;40.03;23.05;;;8.40;99.90;;;;;;5039990;28;20017;-92
2023/02/22 01:06:44;;;;;;;43.72;23.48;;;8.40;99.90;;;;;;5074070;28;20029;-91
2023/02/22 01:09:12;;;;;;;39.78;23.27;;;8.40;99.90;;;;;;5057312;28;20074;-91
2023/02/22 01:11:38;;;;;;;41.05;23.35;;;8.40;99.90;;;;;;5057821;28;20044;-91
2023/02/22 01:14:03;;;;;;;38.78;22.63;;;8.40;99.90;;;;;;5051722;28;20032;-92
2023/02/22 01:16:29;;;;;;;37.35;22.13;;;8.40;99.90;;;;;;5080331;28;20028;-92
2023/02/22 01:18:55;;;;;;;39.15;21.88;;;8.40;99.90;;;;;;5097701;28;20009;-91
2023/02/22 01:21:23;;;;;;;38.75;22.33;;;8.40;99.90;;;;;;5080061;28;20004;-93
2023/02/22 01:23:50;;;;;;;40.58;22.98;;;8.40;99.90;;;;;;5064080;28;20005;-92
2023/02/22 01:26:16;;;;;;;38.03;22.92;;;8.40;99.90;;;;;;5097665;28;20044;-92
2023/02/22 01:28:44;;;;;;;38.00;23.15;;;8.40;99.90;;;;;;5059868;28;20025;-91
2023/02/22 01:31:11;;;;;;;39.75;22.35;;;8.40;99.90;;;;;;5061400;28;20055;-91
2023/02/22 01:33:37;;;;;;;43.00;24.17;;;8.50;99.90;;;;;;5053365;28;20098;-91
2023/02/22 01:36:10;;;;;;;42.55;24.00;;;8.40;99.90;;;;;;5053419;28;20026;-91
2023/02/22 01:38:38;;;;;;;42.17;23.48;;;8.40;99.90;;;;;;5053319;28;20033;-91
2023/02/22 01:41:04;;;;;;;42.72;24.48;;;8.40;99.90;;;;;;5053753;28;20107;-91
2023/02/22 01:43:31;;;;;;;42.75;23.42;;;8.40;99.90;;;;;;5071036;28;20105;-91
2023/02/22 01:46:17;;;;;;;39.28;22.30;;;8.40;99.90;;;;;;5057033;28;20028;-92
2023/02/22 01:48:48;;;;;;;38.38;21.30;;;8.40;99.90;;;;;;5057236;28;20115;-91
2023/02/22 01:51:15;;;;;;;40.42;22.13;;;8.20;99.90;;;;;;5073442;28;20025;-92
2023/02/22 01:53:52;;;;;;;40.15;21.70;;;8.20;99.90;;;;;;5056453;28;20029;-91
2023/02/22 01:56:19;;;;;;;41.25;22.52;;;8.10;99.90;;;;;;5057243;28;20032;-92
2023/02/22 01:58:58;;;;;;;41.03;21.92;;;8.10;99.90;;;;;;5056704;28;20035;-91
2023/02/22 02:01:25;;;;;;;40.83;20.60;;;8.10;99.90;;;;;;5057064;28;20027;-92
2023/02/22 02:03:57;;;;;;;40.17;21.38;;;8.10;99.90;;;;;;5023813;28;20171;-91
2023/02/22 02:06:24;;;;;;;40.75;20.77;;;8.10;99.90;;;;;;5056271;28;20021;-93
2023/02/22 02:09:28;;;;;;;38.30;19.95;;;8.10;99.90;;;;;;5057964;28;20033;-92
2023/02/22 02:11:56;;;;;;;38.25;20.40;;;8.10;99.90;;;;;;5056374;28;20036;-91
2023/02/22 02:14:21;;;;;;;37.35;20.23;;;8.10;99.90;;;;;;5024389;28;20464;-92
2023/02/22 02:16:50;;;;;;;41.67;21.02;;;8.10;99.90;;;;;;5023767;28;20037;-91
2023/02/22 02:19:32;;;;;;;41.10;21.85;;;8.10;99.90;;;;;;5061598;28;20028;-90
2023/02/22 02:22:29;;;;;;;39.58;20.13;;;8.10;99.90;;;;;;5063564;28;20029;-92
2023/02/22 02:25:16;;;;;;;40.35;21.10;;;8.10;99.90;;;;;;5056700;28;20029;-91
2023/02/22 02:27:53;;;;;;;41.80;21.23;;;8.00;99.90;;;;;;5072854;28;20032;-91
2023/02/22 02:30:37;;;;;;;44.10;20.88;;;8.00;99.90;;;;;;5073394;28;20036;-91
2023/02/22 02:33:12;;;;;;;40.50;21.00;;;8.00;99.90;;;;;;5060169;28;20480;-91
2023/02/22 02:35:43;;;;;;;39.78;21.20;;;8.00;99.90;;;;;;5077316;28;20078;-91
2023/02/22 02:38:28;;;;;;;42.13;22.48;;;7.90;99.90;;;;;;5060134;28;20029;-92
2023/02/22 02:41:13;;;;;;;42.20;21.35;;;8.00;99.90;;;;;;5076290;28;20464;-92
2023/02/22 02:44:10;;;;;;;43.65;22.73;;;7.90;99.90;;;;;;5059548;28;20081;-91
2023/02/22 02:46:44;;;;;;;43.72;21.75;;;7.90;99.90;;;;;;5057774;28;20043;-92
2023/02/22 02:49:17;;;;;;;44.15;22.35;;;7.90;99.90;;;;;;5058914;28;20028;-92
2023/02/22 02:51:49;;;;;;;43.63;22.60;;;7.90;99.90;;;;;;5058814;28;20148;-91
2023/02/22 02:54:15;;;;;;;43.95;21.05;;;7.90;99.90;;;;;;5057779;28;20025;-92
2023/02/22 02:56:41;;;;;;;41.25;21.05;;;7.80;99.90;;;;;;5058646;28;20036;-92
2023/02/22 02:59:34;;;;;;;46.00;22.75;;;7.80;99.90;;;;;;5075619;28;20021;-91
2023/02/22 03:02:36;;;;;;;46.88;22.38;;;7.80;99.90;;;;;;5076987;28;20035;-91
2023/02/22 03:05:18;;;;;;;44.88;21.98;;;7.80;99.90;;;;;;5059129;28;20024;-91
2023/02/22 03:08:02;;;;;;;46.97;22.45;;;7.80;99.90;;;;;;5058737;28;20031;-92
2023/02/22 03:10:56;;;;;;;47.28;23.38;;;7.90;99.90;;;;;;5059061;28;20107;-92
2023/02/22 03:13:21;;;;;;;45.78;23.85;;;7.80;99.90;;;;;;5059010;28;20028;-92
2023/02/22 03:16:02;;;;;;;47.28;24.20;;;7.80;99.90;;;;;;5058821;28;20029;-91
2023/02/22 03:18:50;;;;;;;44.80;23.52;;;7.80;99.90;;;;;;5076237;28;20033;-92
2023/02/22 03:21:26;;;;;;;43.08;22.35;;;7.80;99.90;;;;;;5058813;28;20024;-92
2023/02/22 03:24:20;;;;;;;48.38;23.20;;;7.80;99.90;;;;;;5058372;28;20028;-92
2023/02/22 03:27:01;;;;;;;42.97;22.08;;;7.80;99.90;;;;;;5058569;28;20029;-91
2023/02/22 03:29:34;;;;;;;44.28;23.13;;;7.80;99.90;;;;;;5058759;28;20025;-91
2023/02/22 03:32:04;;;;;;;44.80;21.67;;;7.80;99.90;;;;;;5076355;28;20103;-92
2023/02/22 03:34:39;;;;;;;43.55;22.17;;;7.80;99.90;;;;;;5058288;28;20087;-92
2023/02/22 03:37:13;;;;;;;48.75;23.92;;;7.80;99.90;;;;;;5058445;28;20044;-92
2023/02/22 03:39:40;;;;;;;49.92;23.35;;;7.70;99.90;;;;;;5058897;28;20385;-92
2023/02/22 03:42:13;;;;;;;44.22;21.58;;;7.70;99.90;;;;;;5044617;28;20055;-92
2023/02/22 03:44:42;;;;;;;43.97;23.23;;;7.70;99.90;;;;;;5058689;28;20021;-92
2023/02/22 03:47:11;;;;;;;46.35;23.00;;;7.70;99.90;;;;;;5059482;28;20028;-91
2023/02/22 03:49:54;;;;;;;46.75;23.30;;;7.70;99.90;;;;;;5058116;28;20021;-92
2023/02/22 03:52:22;;;;;;;49.38;23.67;;;7.70;99.90;;;;;;5058114;28;20493;-91
2023/02/22 03:54:54;;;;;;;48.00;22.67;;;7.70;99.90;;;;;;5057903;28;20452;-92
2023/02/22 03:57:28;;;;;;;45.58;21.95;;;7.70;99.90;;;;;;5058030;28;20033;-93
2023/02/22 03:59:54;;;;;;;49.50;22.88;;;7.70;99.90;;;;;;5058195;28;20055;-91
2023/02/22 04:02:22;;;;;;;46.45;22.40;;;7.70;99.90;;;;;;5075567;28;20042;-93
2023/02/22 04:04:48;;;;;;;51.30;23.55;;;7.70;99.90;;;;;;5058334;28;20064;-91
2023/02/22 04:07:14;;;;;;;45.10;22.85;;;7.70;99.90;;;;;;5075052;28;20033;-92
2023/02/22 04:09:40;;;;;;;44.15;21.88;;;7.70;99.90;;;;;;5057867;28;20027;-92
2023/02/22 04:12:07;;;;;;;48.17;23.67;;;7.70;99.90;;;;;;5041529;28;20384;-92
2023/02/22 04:14:33;;;;;;;47.70;23.13;;;7.70;99.90;;;;;;5058140;28;20032;-92
2023/02/22 04:16:59;;;;;;;49.15;23.48;;;7.70;99.90;;;;;;5057209;28;20036;-91
2023/02/22 04:19:24;;;;;;;46.47;23.45;;;7.70;99.90;;;;;;5058113;28;20380;-91
2023/02/22 04:21:50;;;;;;;49.45;23.15;;;7.70;99.90;;;;;;5057060;28;20476;-92
2023/02/22 04:24:16;;;;;;;48.75;23.40;;;7.60;99.90;;;;;;5041366;28;20033;-91
2023/02/22 04:26:41;;;;;;;50.35;24.13;;;7.60;99.90;;;;;;5057587;28;20036;-92
2023/02/22 04:29:07;;;;;;;49.03;23.58;;;7.60;99.90;;;;;;5057778;28;20027;-92
2023/02/22 04:31:33;;;;;;;54.45;25.30;;;7.60;99.90;;;;;;5057499;28;20020;-92
2023/02/22 04:34:00;;;;;;;54.25;24.75;;;7.50;99.90;;;;;;5087331;28;20061;-92
2023/02/22 04:36:27;;;;;;;50.03;24.52;;;7.60;99.90;;;;;;5056527;28;20457;-91
2023/02/22 04:38:53;;;;;;;50.67;24.70;;;7.50;99.90;;;;;;5072375;28;20006;-93
2023/02/22 04:41:19;;;;;;;54.58;25.98;;;7.50;99.90;;;;;;5044380;28;20013;-92
2023/02/22 04:43:46;;;;;;;56.00;26.05;;;7.50;99.90;;;;;;5044351;28;20037;-92
2023/02/22 04:46:11;;;;;;;59.30;27.08;;;7.40;99.90;;;;;;5044502;28;20056;-92
2023/02/22 04:48:37;;;;;;;53.47;24.77;;;7.40;99.90;;;;;;5077173;28;20009;-91
2023/02/22 04:51:03;;;;;;;53.78;26.55;;;7.40;99.90;;;;;;5043543;28;20097;-92
2023/02/22 04:53:31;;;;;;;56.15;26.10;;;7.40;99.90;;;;;;5055911;28;20025;-92
2023/02/22 04:55:57;;;;;;;64.05;28.30;;;7.30;99.90;;;;;;5040182;28;20087;-91
2023/02/22 04:58:22;;;;;;;67.22;30.15;;;7.30;99.90;;;;;;5054035;28;20037;-92
2023/02/22 05:00:48;;;;;;;62.05;28.10;;;7.40;99.90;;;;;;5037411;28;20131;-91
2023/02/22 05:03:14;;;;;;;56.90;27.80;;;7.30;99.90;;;;;;5020927;28;20026;-92
2023/02/22 05:05:40;;;;;;;60.95;28.38;;;7.40;99.90;;;;;;5020803;28;20029;-92
2023/02/22 05:08:05;;;;;;;66.20;29.85;;;7.30;99.90;;;;;;5037220;28;20041;-92
2023/02/22 05:10:31;;;;;;;63.95;28.98;;;7.40;99.90;;;;;;5037707;28;20496;-91
2023/02/22 05:12:57;;;;;;;71.68;30.48;;;7.30;99.90;;;;;;5021115;28;20088;-92
2023/02/22 05:15:24;;;;;;;67.43;29.75;;;7.20;99.90;;;;;;5021211;28;20040;-92
2023/02/22 05:17:50;;;;;;;65.82;28.20;;;7.20;99.90;;;;;;5054553;28;20032;-91
2023/02/22 05:20:29;;;;;;;72.07;30.95;;;7.10;99.90;;;;;;5074273;28;20045;-92
2023/02/22 05:22:56;;;;;;;72.10;30.88;;;7.20;99.90;;;;;;5057513;28;20029;-91
2023/02/22 05:25:23;;;;;;;81.32;32.20;;;7.20;99.90;;;;;;5057438;28;20544;-92
2023/02/22 05:27:53;;;;;;;72.72;30.35;;;7.20;99.90;;;;;;5041395;28;20036;-91
2023/02/22 05:30:23;;;;;;;74.63;32.70;;;7.20;99.90;;;;;;5058063;28;20530;-91
2023/02/22 05:32:49;;;;;;;73.72;31.73;;;7.20;99.90;;;;;;5060224;28;20056;-92
2023/02/22 05:35:16;;;;;;;78.25;32.33;;;7.30;99.90;;;;;;5044325;28;20127;-92
2023/02/22 05:37:41;;;;;;;79.25;32.45;;;7.30;99.90;;;;;;5060957;28;20044;-92
2023/02/22 05:40:07;;;;;;;73.00;31.13;;;7.30;99.90;;;;;;5043940;28;20024;-92
2023/02/22 05:42:33;;;;;;;79.25;32.75;;;7.30;99.90;;;;;;5061421;28;20033;-92
2023/02/22 05:44:59;;;;;;;89.07;33.00;;;7.30;99.90;;;;;;5044535;28;20404;-91
2023/02/22 05:47:25;;;;;;;85.10;33.50;;;7.30;99.90;;;;;;5061458;28;20116;-92
2023/02/22 05:49:51;;;;;;;87.28;35.33;;;7.20;99.90;;;;;;5078685;28;20024;-92
2023/02/22 05:52:17;;;;;;;82.65;33.00;;;7.20;99.90;;;;;;5061193;28;20120;-91
2023/02/22 05:54:43;;;;;;;88.65;32.03;;;7.30;99.90;;;;;;5061028;28;20044;-92
2023/02/22 05:57:09;;;;;;;81.18;31.98;;;7.20;99.90;;;;;;5043766;28;20503;-91
2023/02/22 05:59:34;;;;;;;85.20;31.25;;;7.20;99.90;;;;;;5044500;28;20025;-91
2023/02/22 06:02:00;;;;;;;109.93;34.28;;;7.20;99.90;;;;;;5061633;28;20472;-91
2023/02/22 06:04:26;;;;;;;89.65;32.78;;;7.10;99.90;;;;;;5046575;28;20048;-91
2023/02/22 06:06:52;;;;;;;92.10;35.15;;;7.20;99.90;;;;;;5077557;28;20062;-91
2023/02/22 06:09:20;;;;;;;92.15;33.22;;;7.20;99.90;;;;;;5046769;28;20499;-91
2023/02/22 06:11:46;;;;;;;103.28;37.17;;;7.20;99.90;;;;;;5045528;28;20035;-92
2023/02/22 06:14:12;;;;;;;119.03;35.55;;;7.20;99.90;;;;;;5027550;28;20025;-92
2023/02/22 06:16:37;;;;;;;112.75;36.38;;;7.20;99.90;;;;;;5043671;28;20119;-92
2023/02/22 06:19:12;;;;;;;103.10;37.58;;;7.20;99.90;;;;;;5078253;28;20024;-92
2023/02/22 06:21:37;;;;;;;118.00;36.17;;;7.20;99.90;;;;;;5060420;28;20464;-92
2023/02/22 06:24:06;;;;;;;105.63;33.67;;;7.20;99.90;;;;;;5060496;28;20078;-91
2023/02/22 06:26:32;;;;;;;144.90;34.10;;;7.20;99.90;;;;;;5059482;28;20095;-92
2023/02/22 06:28:57;;;;;;;112.18;34.95;;;7.20;99.90;;;;;;5044531;28;20025;-91
2023/02/22 06:31:23;;;;;;;156.23;34.90;;;7.20;99.90;;;;;;5080151;28;20028;-91
2023/02/22 06:33:49;;;;;;;162.25;34.33;;;7.10;99.90;;;;;;5046006;28;20492;-92
2023/02/22 06:36:15;;;;;;;116.05;33.22;;;7.10;99.90;;;;;;5064240;28;20011;-93
2023/02/22 06:38:40;;;;;;;160.27;36.25;;;7.10;99.90;;;;;;5045539;28;20037;-92
2023/02/22 06:41:08;;;;;;;138.60;34.75;;;7.10;99.90;;;;;;5080150;28;20028;-92
2023/02/22 06:43:34;;;;;;;130.90;36.05;;;7.10;99.90;;;;;;5080607;28;20027;-92
2023/02/22 06:46:00;;;;;;;113.50;31.50;;;7.10;99.90;;;;;;5062263;28;20025;-92
2023/02/22 06:48:25;;;;;;;107.03;32.92;;;7.10;99.90;;;;;;5046395;28;20119;-92
2023/02/22 06:50:51;;;;;;;114.50;31.98;;;7.10;99.90;;;;;;5046662;28;20028;-92
2023/02/22 06:53:17;;;;;;;130.05;31.70;;;7.10;99.90;;;;;;5046307;28;20138;-92
2023/02/22 06:55:43;;;;;;;111.60;31.85;;;7.10;99.90;;;;;;5062815;28;20039;-92
2023/02/22 06:58:09;;;;;;;91.28;32.10;;;7.10;99.90;;;;;;5062285;28;20032;-92
2023/02/22 07:00:34;;;;;;;80.78;29.45;;;7.20;99.90;;;;;;5062241;28;20522;-92
2023/02/22 07:03:02;;;;;;;87.38;31.58;;;7.20;99.90;;;;;;5062449;28;20384;-92
2023/02/22 07:05:31;;;;;;;87.43;30.40;;;7.20;99.90;;;;;;5063093;28;20086;-93
2023/02/22 07:08:04;;;;;;;79.97;30.13;;;7.10;99.90;;;;;;5062227;28;20063;-94
2023/02/22 07:10:31;;;;;;;90.22;32.10;;;7.20;99.90;;;;;;5062984;28;20057;-93
2023/02/22 07:12:57;;;;;;;106.50;31.98;;;7.20;99.90;;;;;;5062535;28;20001;-92
2023/02/22 07:15:29;;;;;;;91.45;31.15;;;7.30;99.90;;;;;;5061917;28;20021;-94
2023/02/22 07:17:55;;;;;;;92.93;29.80;;;7.30;99.90;;;;;;5096433;28;20438;-93
2023/02/22 07:20:23;;;;;;;114.68;31.83;;;7.30;99.90;;;;;;5066014;28;20078;-92
2023/02/22 07:22:52;;;;;;;80.07;29.88;;;7.20;99.90;;;;;;5065840;28;20059;-93
2023/02/22 07:25:18;;;;;;;97.95;30.52;;;7.20;99.90;;;;;;5061928;28;20027;-91
2023/02/22 07:27:44;;;;;;;108.00;31.20;;;7.20;99.90;;;;;;5079865;28;20084;-92
2023/02/22 07:30:26;;;;;;;88.63;29.73;;;7.30;99.90;;;;;;5079781;28;20384;-92
2023/02/22 07:32:53;;;;;;;82.20;28.25;;;7.30;99.90;;;;;;5061090;28;20025;-92
2023/02/22 07:35:28;;;;;;;120.13;32.60;;;7.30;99.90;;;;;;5059621;28;20056;-92
2023/02/22 07:37:54;;;;;;;93.20;29.48;;;7.30;99.90;;;;;;5059120;28;20040;-94
2023/02/22 07:40:21;;;;;;;95.38;31.30;;;7.30;99.90;;;;;;5058944;28;20481;-91
2023/02/22 07:43:14;;;;;;;95.18;30.35;;;7.30;99.90;;;;;;5042702;28;20059;-91
2023/02/22 07:45:40;;;;;;;96.85;29.50;;;7.30;99.90;;;;;;5058656;28;20028;-91
2023/02/22 07:48:06;;;;;;;107.55;30.85;;;7.30;99.90;;;;;;5042083;28;20495;-92
2023/02/22 07:50:33;;;;;;;111.43;32.58;;;7.30;99.90;;;;;;5059624;28;20028;-91
2023/02/22 07:53:02;;;;;;;111.78;33.78;;;7.40;99.90;;;;;;5058311;28;20025;-91
2023/02/22 07:55:30;;;;;;;101.38;33.53;;;7.40;99.90;;;;;;5060157;28;20021;-93
2023/02/22 07:58:02;;;;;;;109.72;32.88;;;7.40;99.90;;;;;;5046327;28;20032;-90
2023/02/22 08:00:29;;;;;;;89.43;29.13;;;7.30;99.90;;;;;;5066797;28;20032;-90
2023/02/22 08:02:55;;;;;;;89.57;30.42;;;7.40;99.90;;;;;;5093292;28;20044;-91
2023/02/22 08:05:24;;;;;;;103.60;30.98;;;7.40;99.90;;;;;;5080651;28;20027;-91
2023/02/22 08:07:50;;;;;;;106.25;32.75;;;7.40;99.90;;;;;;5081184;28;20036;-95
2023/02/22 08:10:17;;;;;;;106.30;33.28;;;7.40;99.90;;;;;;5064203;28;20009;-90
2023/02/22 08:12:43;;;;;;;97.10;31.67;;;7.40;99.90;;;;;;5063138;28;20035;-91
2023/02/22 08:15:15;;;;;;;97.90;31.23;;;7.40;99.90;;;;;;5076834;28;20099;-92
2023/02/22 08:17:41;;;;;;;96.03;30.38;;;7.40;99.90;;;;;;5075107;28;20032;-90
2023/02/22 08:20:07;;;;;;;95.70;30.77;;;7.50;99.90;;;;;;5067775;28;20059;-90
2023/02/22 08:22:33;;;;;;;89.43;28.50;;;7.50;99.90;;;;;;5059341;28;20043;-88
2023/02/22 08:24:58;;;;;;;96.50;32.28;;;7.50;99.90;;;;;;5058725;28;20024;-89
2023/02/22 08:27:26;;;;;;;109.85;33.58;;;7.40;99.90;;;;;;5041454;28;20033;-89
2023/02/22 08:29:52;;;;;;;100.20;30.73;;;7.40;99.90;;;;;;5058608;28;20070;-90
2023/02/22 08:32:19;;;;;;;100.63;30.23;;;7.40;99.90;;;;;;5057839;28;20404;-89
2023/02/22 08:34:45;;;;;;;90.18;30.75;;;7.40;99.90;;;;;;5057969;28;20054;-90
2023/02/22 08:37:10;;;;;;;91.22;31.27;;;7.40;99.90;;;;;;5041919;28;20043;-91
2023/02/22 08:39:36;;;;;;;83.18;28.05;;;7.50;99.90;;;;;;5057854;28;20119;-90
2023/02/22 08:42:02;;;;;;;82.72;29.35;;;7.50;99.90;;;;;;5057703;28;20079;-89
2023/02/22 08:44:27;;;;;;;94.43;30.33;;;7.50;99.90;;;;;;5040919;28;20078;-89
2023/02/22 08:46:54;;;;;;;79.60;28.60;;;7.50;99.90;;;;;;5041626;28;20043;-89
2023/02/22 08:49:20;;;;;;;79.50;25.33;;;7.50;99.90;;;;;;5058087;28;20025;-90
2023/02/22 08:51:46;;;;;;;83.47;28.20;;;7.50;99.90;;;;;;5044141;28;20047;-90
2023/02/22 08:54:12;;;;;;;88.18;29.55;;;7.60;99.90;;;;;;5070277;28;20461;-89
2023/02/22 08:56:37;;;;;;;80.75;28.35;;;7.50;99.90;;;;;;5054205;28;20029;-88
2023/02/22 08:59:03;;;;;;;86.22;27.67;;;7.60;99.90;;;;;;5078817;28;20024;-89
2023/02/22 09:01:29;;;;;;;83.45;27.05;;;7.60;99.90;;;;;;5046992;28;20067;-89
2023/02/22 09:03:55;;;;;;;88.70;28.95;;;7.60;99.90;;;;;;5064203;28;20055;-89
2023/02/22 09:06:21;;;;;;;90.63;28.25;;;7.60;99.90;;;;;;5061734;28;20027;-89
2023/02/22 09:08:47;;;;;;;78.10;26.52;;;7.60;99.90;;;;;;5062098;28;20400;-88
2023/02/22 09:11:12;;;;;;;83.85;28.50;;;7.70;99.90;;;;;;5078572;28;20028;-89
2023/02/22 09:13:38;;;;;;;74.40;26.70;;;7.70;99.90;;;;;;5062694;28;20089;-88
2023/02/22 09:16:04;;;;;;;78.70;28.38;;;7.70;99.90;;;;;;5044645;28;20171;-88
2023/02/22 09:18:30;;;;;;;77.13;26.77;;;7.70;99.90;;;;;;5044609;28;20044;-88
2023/02/22 09:20:55;;;;;;;69.85;26.48;;;7.70;99.90;;;;;;5060885;28;20032;-89
2023/02/22 09:23:21;;;;;;;74.70;26.85;;;7.80;99.90;;;;;;5043956;28;20033;-88
2023/02/22 09:25:47;;;;;;;79.03;27.70;;;7.80;99.90;;;;;;5027740;28;20021;-88
2023/02/22 09:28:13;;;;;;;68.93;26.75;;;7.90;99.90;;;;;;5061361;28;20099;-92
2023/02/22 09:30:39;;;;;;;73.38;25.98;;;7.90;99.90;;;;;;5060689;28;20029;-88
2023/02/22 09:33:13;;;;;;;74.28;27.23;;;7.90;99.90;;;;;;5044646;28;20036;-89
2023/02/22 09:35:46;;;;;;;72.75;27.00;;;8.00;99.90;;;;;;5061299;28;20021;-88
2023/02/22 09:38:23;;;;;;;72.63;27.83;;;8.00;99.90;;;;;;5061126;28;20047;-89
2023/02/22 09:40:53;;;;;;;65.47;26.45;;;8.00;99.90;;;;;;5078641;28;20025;-88
2023/02/22 09:43:40;;;;;;;69.97;26.42;;;8.10;99.90;;;;;;5061357;28;20021;-89
2023/02/22 09:46:26;;;;;;;80.50;26.52;;;8.10;99.90;;;;;;5060345;28;20031;-89
2023/02/22 09:49:01;;;;;;;64.25;24.67;;;8.10;99.90;;;;;;5060497;28;20024;-88
2023/02/22 09:51:41;;;;;;;65.60;26.98;;;8.10;99.90;;;;;;5060139;28;20070;-88
2023/02/22 09:54:21;;;;;;;63.60;25.52;;;8.20;99.90;;;;;;5094027;28;20047;-89
2023/02/22 09:56:50;;;;;;;67.20;26.75;;;8.20;99.90;;;;;;5060651;28;20063;-88
2023/02/22 09:59:23;;;;;;;66.90;25.40;;;8.30;99.90;;;;;;5062801;28;20036;-88
2023/02/22 10:01:57;;;;;;;59.10;25.10;;;8.30;99.90;;;;;;5061508;28;20055;-88
2023/02/22 10:04:50;;;;;;;63.50;25.38;;;8.40;99.90;;;;;;5059240;28;20021;-88
2023/02/22 10:07:17;;;;;;;64.97;27.45;;;8.40;99.90;;;;;;5094220;28;20024;-88
2023/02/22 10:09:45;;;;;;;64.65;26.50;;;8.40;99.90;;;;;;5077759;28;20104;-89
2023/02/22 10:12:24;;;;;;;60.95;26.00;;;8.50;99.90;;;;;;5060836;28;20023;-89
2023/02/22 10:15:17;;;;;;;66.13;27.02;;;8.50;99.90;;;;;;5076986;28;20029;-89
2023/02/22 10:17:54;;;;;;;60.58;25.73;;;8.50;99.90;;;;;;5093790;28;20131;-89
2023/02/22 10:20:38;;;;;;;62.40;25.38;;;8.60;99.90;;;;;;5094236;28;20406;-89
2023/02/22 10:23:10;;;;;;;66.65;26.10;;;8.60;99.90;;;;;;5061291;28;20029;-89
2023/02/22 10:25:37;;;;;;;56.22;24.95;;;8.60;99.90;;;;;;5077516;28;20021;-89
2023/02/22 10:28:23;;;;;;;63.78;26.13;;;8.60;99.90;;;;;;5060570;28;20443;-88
2023/02/22 10:30:54;;;;;;;58.30;24.85;;;8.70;99.90;;;;;;5078015;28;20027;-88
2023/02/22 10:33:35;;;;;;;51.40;23.88;;;8.70;99.90;;;;;;5078785;28;20480;-94
2023/02/22 10:36:02;;;;;;;51.13;23.77;;;8.80;99.90;;;;;;5060608;28;20032;-88
2023/02/22 10:38:34;;;;;;;51.58;23.77;;;8.80;99.90;;;;;;5043183;28;20131;-88
2023/02/22 10:41:17;;;;;;;51.70;24.35;;;8.90;99.90;;;;;;5059579;28;20028;-88
2023/02/22 10:43:43;;;;;;;51.15;23.63;;;8.90;99.90;;;;;;5059632;28;20025;-88
2023/02/22 10:46:15;;;;;;;62.05;26.70;;;8.90;99.90;;;;;;5060232;28;20032;-88
2023/02/22 10:48:46;;;;;;;54.15;25.92;;;9.00;99.90;;;;;;5060065;28;20035;-87
2023/02/22 10:51:12;;;;;;;53.53;24.58;;;9.00;99.90;;;;;;5059379;28;20046;-88
2023/02/22 10:53:38;;;;;;;46.85;24.23;;;9.10;99.90;;;;;;5042350;28;20415;-88
2023/02/22 10:56:11;;;;;;;54.85;23.88;;;9.10;99.90;;;;;;5059344;28;20024;-88
2023/02/22 10:59:01;;;;;;;56.78;25.40;;;9.20;99.90;;;;;;5075826;28;20075;-88
2023/02/22 11:01:29;;;;;;;54.13;25.77;;;9.20;99.90;;;;;;5059253;28;20025;-88
2023/02/22 11:04:15;;;;;;;52.22;23.77;;;9.30;99.90;;;;;;5075628;28;20051;-89
2023/02/22 11:06:47;;;;;;;42.40;22.88;;;9.30;99.90;;;;;;5059030;28;20075;-88
2023/02/22 11:09:23;;;;;;;48.20;22.67;;;9.40;99.90;;;;;;5059048;28;20058;-88
2023/02/22 11:12:10;;;;;;;47.08;23.60;;;9.40;99.90;;;;;;5042653;28;20025;-88
2023/02/22 11:14:37;;;;;;;51.90;24.58;;;9.50;99.90;;;;;;5059222;28;20033;-88
2023/02/22 11:17:07;;;;;;;49.58;25.88;;;9.50;99.90;;;;;;5027159;28;20507;-87
2023/02/22 11:19:35;;;;;;;47.22;23.70;;;9.60;99.90;;;;;;5059405;28;20021;-87
2023/02/22 11:22:20;;;;;;;54.05;25.15;;;9.60;99.90;;;;;;5060463;28;20036;-88
2023/02/22 11:24:58;;;;;;;51.55;24.42;;;9.70;99.90;;;;;;5092690;28;20044;-88
2023/02/22 11:27:39;;;;;;;45.92;23.55;;;9.70;99.90;;;;;;5098901;28;20024;-88
2023/02/22 11:30:29;;;;;;;44.47;23.02;;;9.80;99.90;;;;;;5115640;28;20015;-90
2023/02/22 11:33:14;;;;;;;40.72;23.60;;;9.80;99.90;;;;;;5081428;28;20088;-88
2023/02/22 11:35:58;;;;;;;44.47;23.05;;;9.90;99.90;;;;;;5078649;28;20044;-88
2023/02/22 11:38:31;;;;;;;47.90;22.58;;;9.90;99.90;;;;;;5057175;28;20032;-85
2023/02/22 11:41:06;;;;;;;40.72;22.23;;;10.00;99.90;;;;;;5049641;28;20021;-89
2023/02/22 11:43:32;;;;;;;43.55;23.77;;;10.10;99.90;;;;;;5043936;28;20029;-87
2023/02/22 11:46:07;;;;;;;43.58;20.60;;;10.10;99.90;;;;;;5061705;28;20434;-88
2023/02/22 11:48:38;;;;;;;40.05;20.98;;;10.20;99.90;;;;;;5043243;28;20032;-88
2023/02/22 11:51:22;;;;;;;40.78;21.98;;;10.30;99.90;;;;;;5044627;28;20041;-88
2023/02/22 11:54:09;;;;;;;41.33;21.15;;;10.30;99.90;;;;;;5061304;28;20021;-87
2023/02/22 11:56:44;;;;;;;42.77;22.20;;;10.30;99.90;;;;;;5042474;28;20538;-87
2023/02/22 11:59:58;;;;;;;39.08;21.27;;;10.40;99.90;;;;;;5042830;28;20025;-88
2023/02/22 12:02:45;;;;;;;38.22;20.73;;;10.40;99.90;;;;;;5019526;28;20445;-89
2023/02/22 12:05:25;;;;;;;38.13;20.73;;;10.40;99.90;;;;;;5042326;28;20469;-89
2023/02/22 12:07:57;;;;;;;40.28;21.25;;;10.40;99.90;;;;;;5060743;28;20025;-88
2023/02/22 12:10:23;;;;;;;36.25;21.00;;;10.40;99.90;;;;;;5041320;28;20033;-89
2023/02/22 12:13:28;;;;;;;35.67;20.45;;;10.50;99.90;;;;;;5059063;28;20025;-89
2023/02/22 12:16:22;;;;;;;35.80;20.42;;;10.50;99.90;;;;;;5057363;28;20102;-88
2023/02/22 12:19:39;;;;;;;34.78;21.10;;;10.60;99.90;;;;;;5055786;28;20464;-88
2023/02/22 12:22:34;;;;;;;39.20;21.73;;;10.70;99.90;;;;;;5020208;28;20512;-89
2023/02/22 12:25:07;;;;;;;35.83;20.38;;;10.80;99.90;;;;;;5053679;28;20036;-89
2023/02/22 12:27:41;;;;;;;35.47;21.15;;;10.90;99.90;;;;;;5036845;28;20086;-89
2023/02/22 12:30:22;;;;;;;33.88;19.73;;;10.90;99.90;;;;;;5037595;28;20025;-88
2023/02/22 12:32:52;;;;;;;34.40;19.75;;;11.00;99.90;;;;;;5037462;28;20115;-88
2023/02/22 12:35:25;;;;;;;33.53;20.42;;;11.00;99.90;;;;;;5055632;28;20060;-87
2023/02/22 12:38:07;;;;;;;33.25;19.85;;;11.10;99.90;;;;;;5056773;28;20059;-88
2023/02/22 12:40:44;;;;;;;31.40;19.02;;;11.20;99.90;;;;;;5075025;28;20017;-88
2023/02/22 12:43:27;;;;;;;32.40;18.75;;;11.20;99.90;;;;;;5073665;28;20024;-88
2023/02/22 12:46:01;;;;;;;31.48;18.55;;;11.30;99.90;;;;;;5075596;28;20103;-88
2023/02/22 12:48:46;;;;;;;38.75;19.25;;;11.30;99.90;;;;;;5057217;28;20051;-88
2023/02/22 12:51:53;;;;;;;26.27;15.85;;;11.40;99.90;;;;;;5073735;28;20060;-88
2023/02/22 12:54:38;;;;;;;29.02;16.58;;;11.50;99.90;;;;;;5056730;28;20036;-88
2023/02/22 12:57:43;;;;;;;28.83;16.88;;;11.50;99.90;;;;;;5090481;28;20036;-87